Terminal Aerodrome Forecast
Issued by NWS

Home | Current Version | Previous Version | Text Only | Print | Product List | Glossary On
Versions: 1 2 3 4 5 6 7 8 9 10 11 12 13 14 15 16 17
000
FTUS41 KALY 222114 AAA
TAFPSF
TAF AMD
KPSF 222114Z 2221/2318 VRB05KT P6SM VCSH OVC010
      TEMPO 2221/2224 2SM -SHRA BR OVC009
     FM230000 19004KT 2SM BR OVC007
     FM230500 28004KT 4SM BR SCT008 BKN040
     FM231100 33004KT P6SM SCT250=

USA.gov is the U.S. government's official web portal to all federal, state and local government web resources and services.